Spring Green, Wisconsin
Current Conditions -  °F | °C
As of 5:56 PM on Saturday 20 Dec 2014 (Local Time) from KLNR Reporting Station
Overcast Overcast  
Wind Chill: 30°   Ceiling: 1800
Heat Index: 34°   Visibility: 8mi
Dew Point: 25°   Wind: 5mph
Humidity: 70%   Direction: 120°ESE
Pressure: 30.22"   Gusts: NA
Location:  43.18°N, 90.07°W
Report Text: KLNR 202356Z AUTO 12004KT 8SM OVC018 01/M04 A3022 RMK AO2 SLP236 T00111039 10017 20011 52005
Loading
Personal Weather Stations






























Interactive Weather Map New forecast layout! Learn more

10-Day Weather Forecast

Advertisements
Track Severe Weather on mobile